sensor_id;sensor_type;location;lat;lon;timestamp;P1;durP1;ratioP1;P2;durP2;ratioP2
35150;SDS011;55720;51.972;4.624;2024-01-25T00:00:51;37.55;;;3.60;;
35150;SDS011;55720;51.972;4.624;2024-01-25T00:03:16;23.30;;;3.30;;
35150;SDS011;55720;51.972;4.624;2024-01-25T00:05:42;30.13;;;3.40;;
35150;SDS011;55720;51.972;4.624;2024-01-25T00:08:08;24.17;;;4.45;;
35150;SDS011;55720;51.972;4.624;2024-01-25T00:10:33;29.13;;;3.90;;
35150;SDS011;55720;51.972;4.624;2024-01-25T00:12:58;26.47;;;3.50;;
35150;SDS011;55720;51.972;4.624;2024-01-25T00:15:23;22.83;;;3.03;;
35150;SDS011;55720;51.972;4.624;2024-01-25T00:17:49;19.13;;;3.03;;
35150;SDS011;55720;51.972;4.624;2024-01-25T00:20:14;25.33;;;3.08;;
35150;SDS011;55720;51.972;4.624;2024-01-25T00:22:40;26.83;;;3.75;;
35150;SDS011;55720;51.972;4.624;2024-01-25T00:25:05;28.80;;;2.85;;
35150;SDS011;55720;51.972;4.624;2024-01-25T00:27:31;33.55;;;4.13;;
35150;SDS011;55720;51.972;4.624;2024-01-25T00:29:56;30.67;;;3.45;;
35150;SDS011;55720;51.972;4.624;2024-01-25T00:32:21;35.15;;;4.25;;
35150;SDS011;55720;51.972;4.624;2024-01-25T00:34:47;23.00;;;3.50;;
35150;SDS011;55720;51.972;4.624;2024-01-25T00:37:12;28.70;;;3.30;;
35150;SDS011;55720;51.972;4.624;2024-01-25T00:39:37;26.33;;;3.30;;
35150;SDS011;55720;51.972;4.624;2024-01-25T00:42:03;23.25;;;3.53;;
35150;SDS011;55720;51.972;4.624;2024-01-25T00:44:29;20.92;;;3.17;;
35150;SDS011;55720;51.972;4.624;2024-01-25T00:46:55;29.70;;;4.22;;
35150;SDS011;55720;51.972;4.624;2024-01-25T00:49:20;25.17;;;3.15;;
35150;SDS011;55720;51.972;4.624;2024-01-25T00:51:46;34.08;;;3.30;;
35150;SDS011;55720;51.972;4.624;2024-01-25T00:54:12;27.63;;;4.07;;
35150;SDS011;55720;51.972;4.624;2024-01-25T00:56:37;32.97;;;4.28;;
35150;SDS011;55720;51.972;4.624;2024-01-25T00:59:02;27.00;;;3.45;;
35150;SDS011;55720;51.972;4.624;2024-01-25T01:01:28;26.52;;;3.15;;
35150;SDS011;55720;51.972;4.624;2024-01-25T01:03:54;27.45;;;2.78;;
35150;SDS011;55720;51.972;4.624;2024-01-25T01:06:20;24.50;;;3.55;;
35150;SDS011;55720;51.972;4.624;2024-01-25T01:08:45;31.45;;;3.88;;
35150;SDS011;55720;51.972;4.624;2024-01-25T01:11:11;27.35;;;4.55;;
35150;SDS011;55720;51.972;4.624;2024-01-25T01:13:36;25.73;;;3.55;;
35150;SDS011;55720;51.972;4.624;2024-01-25T01:16:01;23.47;;;3.70;;
35150;SDS011;55720;51.972;4.624;2024-01-25T01:18:26;27.15;;;4.13;;
35150;SDS011;55720;51.972;4.624;2024-01-25T01:20:52;45.90;;;4.53;;
35150;SDS011;55720;51.972;4.624;2024-01-25T01:23:17;25.60;;;3.05;;
35150;SDS011;55720;51.972;4.624;2024-01-25T01:25:43;28.65;;;4.28;;
35150;SDS011;55720;51.972;4.624;2024-01-25T01:28:08;20.48;;;3.58;;
35150;SDS011;55720;51.972;4.624;2024-01-25T01:30:33;30.77;;;3.72;;
35150;SDS011;55720;51.972;4.624;2024-01-25T01:32:58;17.07;;;2.70;;
35150;SDS011;55720;51.972;4.624;2024-01-25T01:35:23;23.20;;;3.30;;
35150;SDS011;55720;51.972;4.624;2024-01-25T01:37:49;25.85;;;3.50;;
35150;SDS011;55720;51.972;4.624;2024-01-25T01:40:14;32.40;;;3.58;;
35150;SDS011;55720;51.972;4.624;2024-01-25T01:42:39;29.23;;;3.35;;
35150;SDS011;55720;51.972;4.624;2024-01-25T01:45:04;28.43;;;3.57;;
35150;SDS011;55720;51.972;4.624;2024-01-25T01:47:30;21.15;;;3.67;;
35150;SDS011;55720;51.972;4.624;2024-01-25T01:49:55;27.50;;;3.20;;
35150;SDS011;55720;51.972;4.624;2024-01-25T01:52:20;30.73;;;3.08;;
35150;SDS011;55720;51.972;4.624;2024-01-25T01:54:46;38.97;;;3.17;;
35150;SDS011;55720;51.972;4.624;2024-01-25T01:57:12;34.88;;;3.40;;
35150;SDS011;55720;51.972;4.624;2024-01-25T01:59:37;40.80;;;4.07;;
35150;SDS011;55720;51.972;4.624;2024-01-25T02:02:03;26.95;;;3.45;;
35150;SDS011;55720;51.972;4.624;2024-01-25T02:04:28;26.00;;;3.30;;
35150;SDS011;55720;51.972;4.624;2024-01-25T02:06:53;23.90;;;3.20;;
35150;SDS011;55720;51.972;4.624;2024-01-25T02:09:18;24.17;;;3.38;;
35150;SDS011;55720;51.972;4.624;2024-01-25T02:11:44;26.20;;;3.13;;
35150;SDS011;55720;51.972;4.624;2024-01-25T02:14:09;32.73;;;4.40;;
35150;SDS011;55720;51.972;4.624;2024-01-25T02:16:36;26.58;;;3.83;;
35150;SDS011;55720;51.972;4.624;2024-01-25T02:19:02;28.83;;;3.72;;
35150;SDS011;55720;51.972;4.624;2024-01-25T02:21:28;29.67;;;3.13;;
35150;SDS011;55720;51.972;4.624;2024-01-25T02:23:53;23.05;;;3.10;;
35150;SDS011;55720;51.972;4.624;2024-01-25T02:26:18;29.03;;;3.63;;
35150;SDS011;55720;51.972;4.624;2024-01-25T02:28:43;26.60;;;2.67;;
35150;SDS011;55720;51.972;4.624;2024-01-25T02:31:09;25.42;;;3.40;;
35150;SDS011;55720;51.972;4.624;2024-01-25T02:33:34;26.10;;;3.25;;
35150;SDS011;55720;51.972;4.624;2024-01-25T02:35:59;33.93;;;3.87;;
35150;SDS011;55720;51.972;4.624;2024-01-25T02:38:24;27.98;;;3.83;;
35150;SDS011;55720;51.972;4.624;2024-01-25T02:40:49;30.70;;;3.85;;
35150;SDS011;55720;51.972;4.624;2024-01-25T02:43:15;32.15;;;3.90;;
35150;SDS011;55720;51.972;4.624;2024-01-25T02:45:40;37.33;;;3.85;;
35150;SDS011;55720;51.972;4.624;2024-01-25T02:48:05;23.10;;;3.37;;
35150;SDS011;55720;51.972;4.624;2024-01-25T02:50:30;26.45;;;3.53;;
35150;SDS011;55720;51.972;4.624;2024-01-25T02:52:56;34.88;;;3.35;;
35150;SDS011;55720;51.972;4.624;2024-01-25T02:55:21;33.15;;;4.00;;
35150;SDS011;55720;51.972;4.624;2024-01-25T02:57:47;35.90;;;4.15;;
35150;SDS011;55720;51.972;4.624;2024-01-25T03:00:12;27.87;;;3.67;;
35150;SDS011;55720;51.972;4.624;2024-01-25T03:02:38;37.72;;;3.83;;
35150;SDS011;55720;51.972;4.624;2024-01-25T03:05:03;36.10;;;4.15;;
35150;SDS011;55720;51.972;4.624;2024-01-25T03:07:28;29.27;;;3.30;;
35150;SDS011;55720;51.972;4.624;2024-01-25T03:09:54;30.27;;;3.57;;
35150;SDS011;55720;51.972;4.624;2024-01-25T03:12:19;35.03;;;3.88;;
35150;SDS011;55720;51.972;4.624;2024-01-25T03:14:44;41.83;;;3.88;;
35150;SDS011;55720;51.972;4.624;2024-01-25T03:17:10;35.05;;;2.97;;
35150;SDS011;55720;51.972;4.624;2024-01-25T03:19:37;23.08;;;3.30;;
35150;SDS011;55720;51.972;4.624;2024-01-25T03:22:02;26.50;;;2.87;;
35150;SDS011;55720;51.972;4.624;2024-01-25T03:24:27;32.35;;;3.50;;
35150;SDS011;55720;51.972;4.624;2024-01-25T03:26:53;28.13;;;3.60;;
35150;SDS011;55720;51.972;4.624;2024-01-25T03:29:18;23.20;;;3.30;;
35150;SDS011;55720;51.972;4.624;2024-01-25T03:31:43;26.43;;;3.77;;
35150;SDS011;55720;51.972;4.624;2024-01-25T03:34:08;26.60;;;2.93;;
35150;SDS011;55720;51.972;4.624;2024-01-25T03:36:33;28.95;;;3.75;;
35150;SDS011;55720;51.972;4.624;2024-01-25T03:38:59;29.63;;;3.28;;
35150;SDS011;55720;51.972;4.624;2024-01-25T03:41:24;21.08;;;3.17;;
35150;SDS011;55720;51.972;4.624;2024-01-25T03:43:52;22.73;;;3.43;;
35150;SDS011;55720;51.972;4.624;2024-01-25T03:46:18;24.45;;;4.18;;
35150;SDS011;55720;51.972;4.624;2024-01-25T03:48:43;37.70;;;3.60;;
35150;SDS011;55720;51.972;4.624;2024-01-25T03:51:08;32.35;;;3.60;;
35150;SDS011;55720;51.972;4.624;2024-01-25T03:53:33;30.83;;;4.22;;
35150;SDS011;55720;51.972;4.624;2024-01-25T03:55:59;34.58;;;3.53;;
35150;SDS011;55720;51.972;4.624;2024-01-25T03:58:24;25.05;;;3.55;;
35150;SDS011;55720;51.972;4.624;2024-01-25T04:00:49;27.73;;;3.60;;
35150;SDS011;55720;51.972;4.624;2024-01-25T04:03:15;40.42;;;4.05;;
35150;SDS011;55720;51.972;4.624;2024-01-25T04:05:40;41.50;;;4.18;;
35150;SDS011;55720;51.972;4.624;2024-01-25T04:08:05;31.40;;;3.57;;
35150;SDS011;55720;51.972;4.624;2024-01-25T04:10:31;30.70;;;4.15;;
35150;SDS011;55720;51.972;4.624;2024-01-25T04:12:56;30.20;;;3.55;;
35150;SDS011;55720;51.972;4.624;2024-01-25T04:15:21;35.15;;;3.83;;
35150;SDS011;55720;51.972;4.624;2024-01-25T04:17:47;36.67;;;3.93;;
35150;SDS011;55720;51.972;4.624;2024-01-25T04:20:12;46.58;;;3.95;;
35150;SDS011;55720;51.972;4.624;2024-01-25T04:22:37;28.48;;;4.00;;
35150;SDS011;55720;51.972;4.624;2024-01-25T04:25:03;30.98;;;3.70;;
35150;SDS011;55720;51.972;4.624;2024-01-25T04:27:29;50.92;;;4.78;;
35150;SDS011;55720;51.972;4.624;2024-01-25T04:29:54;37.47;;;4.80;;
35150;SDS011;55720;51.972;4.624;2024-01-25T04:32:19;29.57;;;3.87;;
35150;SDS011;55720;51.972;4.624;2024-01-25T04:34:45;38.03;;;4.57;;
35150;SDS011;55720;51.972;4.624;2024-01-25T04:37:12;42.67;;;4.43;;
35150;SDS011;55720;51.972;4.624;2024-01-25T04:39:37;29.63;;;3.92;;
35150;SDS011;55720;51.972;4.624;2024-01-25T04:42:03;32.90;;;4.10;;
35150;SDS011;55720;51.972;4.624;2024-01-25T04:44:28;44.17;;;4.10;;
35150;SDS011;55720;51.972;4.624;2024-01-25T04:46:53;32.30;;;3.83;;
35150;SDS011;55720;51.972;4.624;2024-01-25T04:49:19;36.63;;;3.95;;
35150;SDS011;55720;51.972;4.624;2024-01-25T04:51:44;36.13;;;4.00;;
35150;SDS011;55720;51.972;4.624;2024-01-25T04:54:10;37.47;;;3.57;;
35150;SDS011;55720;51.972;4.624;2024-01-25T04:56:37;45.95;;;5.00;;
35150;SDS011;55720;51.972;4.624;2024-01-25T04:59:03;27.92;;;4.25;;
35150;SDS011;55720;51.972;4.624;2024-01-25T05:01:28;27.83;;;3.73;;
35150;SDS011;55720;51.972;4.624;2024-01-25T05:03:53;43.22;;;4.32;;
35150;SDS011;55720;51.972;4.624;2024-01-25T05:06:18;39.33;;;4.35;;
35150;SDS011;55720;51.972;4.624;2024-01-25T05:08:44;44.80;;;5.57;;
35150;SDS011;55720;51.972;4.624;2024-01-25T05:11:09;55.38;;;5.53;;
35150;SDS011;55720;51.972;4.624;2024-01-25T05:13:34;43.67;;;3.90;;
35150;SDS011;55720;51.972;4.624;2024-01-25T05:16:00;40.35;;;3.80;;
35150;SDS011;55720;51.972;4.624;2024-01-25T05:18:25;34.90;;;4.85;;
35150;SDS011;55720;51.972;4.624;2024-01-25T05:20:51;30.85;;;3.25;;
35150;SDS011;55720;51.972;4.624;2024-01-25T05:23:16;32.85;;;3.33;;
35150;SDS011;55720;51.972;4.624;2024-01-25T05:25:41;25.30;;;3.97;;
35150;SDS011;55720;51.972;4.624;2024-01-25T05:28:06;28.73;;;4.07;;
35150;SDS011;55720;51.972;4.624;2024-01-25T05:30:31;33.53;;;4.25;;
35150;SDS011;55720;51.972;4.624;2024-01-25T05:32:57;17.80;;;3.53;;
35150;SDS011;55720;51.972;4.624;2024-01-25T05:35:22;30.90;;;4.25;;
35150;SDS011;55720;51.972;4.624;2024-01-25T05:37:48;26.08;;;3.13;;
35150;SDS011;55720;51.972;4.624;2024-01-25T05:40:14;24.40;;;3.90;;
35150;SDS011;55720;51.972;4.624;2024-01-25T05:42:39;37.60;;;3.50;;
35150;SDS011;55720;51.972;4.624;2024-01-25T05:45:05;33.78;;;4.13;;
35150;SDS011;55720;51.972;4.624;2024-01-25T05:47:31;50.75;;;5.07;;
35150;SDS011;55720;51.972;4.624;2024-01-25T05:49:56;38.40;;;6.38;;
35150;SDS011;55720;51.972;4.624;2024-01-25T05:52:22;30.98;;;4.13;;
35150;SDS011;55720;51.972;4.624;2024-01-25T05:54:47;33.92;;;3.40;;
35150;SDS011;55720;51.972;4.624;2024-01-25T05:57:12;30.92;;;4.25;;
35150;SDS011;55720;51.972;4.624;2024-01-25T05:59:38;46.20;;;4.82;;
35150;SDS011;55720;51.972;4.624;2024-01-25T06:02:03;42.45;;;4.13;;
35150;SDS011;55720;51.972;4.624;2024-01-25T06:04:28;42.90;;;4.78;;
35150;SDS011;55720;51.972;4.624;2024-01-25T06:06:54;28.83;;;3.67;;
35150;SDS011;55720;51.972;4.624;2024-01-25T06:09:19;29.33;;;4.40;;
35150;SDS011;55720;51.972;4.624;2024-01-25T06:11:44;35.10;;;4.10;;
35150;SDS011;55720;51.972;4.624;2024-01-25T06:14:11;32.95;;;4.82;;
35150;SDS011;55720;51.972;4.624;2024-01-25T06:16:36;39.03;;;4.70;;
35150;SDS011;55720;51.972;4.624;2024-01-25T06:19:02;24.67;;;4.63;;
35150;SDS011;55720;51.972;4.624;2024-01-25T06:21:27;34.55;;;5.22;;
35150;SDS011;55720;51.972;4.624;2024-01-25T06:23:52;41.40;;;3.92;;
35150;SDS011;55720;51.972;4.624;2024-01-25T06:26:18;45.43;;;3.80;;
35150;SDS011;55720;51.972;4.624;2024-01-25T06:28:43;29.65;;;3.92;;
35150;SDS011;55720;51.972;4.624;2024-01-25T06:31:08;37.60;;;4.88;;
35150;SDS011;55720;51.972;4.624;2024-01-25T06:33:33;35.97;;;4.68;;
35150;SDS011;55720;51.972;4.624;2024-01-25T06:35:59;33.92;;;4.28;;
35150;SDS011;55720;51.972;4.624;2024-01-25T06:38:24;28.80;;;4.55;;
35150;SDS011;55720;51.972;4.624;2024-01-25T06:40:49;49.28;;;6.07;;
35150;SDS011;55720;51.972;4.624;2024-01-25T06:43:15;48.37;;;5.37;;
35150;SDS011;55720;51.972;4.624;2024-01-25T06:45:40;37.03;;;4.70;;
35150;SDS011;55720;51.972;4.624;2024-01-25T06:48:08;30.02;;;4.07;;
35150;SDS011;55720;51.972;4.624;2024-01-25T06:50:34;42.50;;;4.43;;
35150;SDS011;55720;51.972;4.624;2024-01-25T06:52:59;31.02;;;4.05;;
35150;SDS011;55720;51.972;4.624;2024-01-25T06:55:24;25.70;;;4.33;;
35150;SDS011;55720;51.972;4.624;2024-01-25T06:57:49;32.23;;;3.83;;
35150;SDS011;55720;51.972;4.624;2024-01-25T07:00:15;41.85;;;4.43;;
35150;SDS011;55720;51.972;4.624;2024-01-25T07:02:40;44.15;;;4.47;;
35150;SDS011;55720;51.972;4.624;2024-01-25T07:05:06;37.53;;;5.20;;
35150;SDS011;55720;51.972;4.624;2024-01-25T07:07:31;38.47;;;4.65;;
35150;SDS011;55720;51.972;4.624;2024-01-25T07:09:57;41.88;;;5.25;;
35150;SDS011;55720;51.972;4.624;2024-01-25T07:12:23;40.97;;;4.75;;
35150;SDS011;55720;51.972;4.624;2024-01-25T07:14:48;36.40;;;4.40;;
35150;SDS011;55720;51.972;4.624;2024-01-25T07:17:13;43.85;;;5.47;;
35150;SDS011;55720;51.972;4.624;2024-01-25T07:19:39;33.72;;;4.47;;
35150;SDS011;55720;51.972;4.624;2024-01-25T07:22:04;43.50;;;5.20;;
35150;SDS011;55720;51.972;4.624;2024-01-25T07:24:29;63.45;;;5.53;;
35150;SDS011;55720;51.972;4.624;2024-01-25T07:26:54;51.60;;;6.03;;
35150;SDS011;55720;51.972;4.624;2024-01-25T07:29:20;33.80;;;4.77;;
35150;SDS011;55720;51.972;4.624;2024-01-25T07:31:45;42.47;;;5.17;;
35150;SDS011;55720;51.972;4.624;2024-01-25T07:34:10;33.97;;;5.40;;
35150;SDS011;55720;51.972;4.624;2024-01-25T07:36:35;50.15;;;5.53;;
35150;SDS011;55720;51.972;4.624;2024-01-25T07:39:00;53.33;;;5.63;;
35150;SDS011;55720;51.972;4.624;2024-01-25T07:41:26;38.65;;;4.47;;
35150;SDS011;55720;51.972;4.624;2024-01-25T07:43:51;52.00;;;5.90;;
35150;SDS011;55720;51.972;4.624;2024-01-25T07:46:20;52.05;;;6.00;;
35150;SDS011;55720;51.972;4.624;2024-01-25T07:48:45;43.67;;;4.90;;
35150;SDS011;55720;51.972;4.624;2024-01-25T07:51:10;35.33;;;5.07;;
35150;SDS011;55720;51.972;4.624;2024-01-25T07:53:37;50.00;;;6.10;;
35150;SDS011;55720;51.972;4.624;2024-01-25T07:56:02;45.77;;;5.60;;
35150;SDS011;55720;51.972;4.624;2024-01-25T07:58:27;38.15;;;4.43;;
35150;SDS011;55720;51.972;4.624;2024-01-25T08:00:55;39.90;;;4.20;;
35150;SDS011;55720;51.972;4.624;2024-01-25T08:03:20;48.95;;;5.20;;
35150;SDS011;55720;51.972;4.624;2024-01-25T08:05:46;59.05;;;5.55;;
35150;SDS011;55720;51.972;4.624;2024-01-25T08:08:11;44.50;;;5.47;;
35150;SDS011;55720;51.972;4.624;2024-01-25T08:10:36;40.33;;;4.20;;
35150;SDS011;55720;51.972;4.624;2024-01-25T08:13:02;36.35;;;5.10;;
35150;SDS011;55720;51.972;4.624;2024-01-25T08:15:27;48.53;;;5.47;;
35150;SDS011;55720;51.972;4.624;2024-01-25T08:17:52;54.42;;;5.03;;
35150;SDS011;55720;51.972;4.624;2024-01-25T08:20:17;44.30;;;5.57;;
35150;SDS011;55720;51.972;4.624;2024-01-25T08:22:43;37.53;;;5.43;;
35150;SDS011;55720;51.972;4.624;2024-01-25T08:25:08;41.67;;;5.60;;
35150;SDS011;55720;51.972;4.624;2024-01-25T08:27:33;39.58;;;5.63;;
35150;SDS011;55720;51.972;4.624;2024-01-25T08:29:58;55.00;;;5.43;;
35150;SDS011;55720;51.972;4.624;2024-01-25T08:32:24;41.08;;;6.53;;
35150;SDS011;55720;51.972;4.624;2024-01-25T08:34:49;37.35;;;4.95;;
35150;SDS011;55720;51.972;4.624;2024-01-25T08:37:14;46.15;;;6.60;;
35150;SDS011;55720;51.972;4.624;2024-01-25T08:39:39;49.83;;;5.85;;
35150;SDS011;55720;51.972;4.624;2024-01-25T08:42:05;50.95;;;5.20;;
35150;SDS011;55720;51.972;4.624;2024-01-25T08:44:31;41.08;;;5.57;;
35150;SDS011;55720;51.972;4.624;2024-01-25T08:46:56;45.85;;;6.20;;
35150;SDS011;55720;51.972;4.624;2024-01-25T08:49:22;39.33;;;6.18;;
35150;SDS011;55720;51.972;4.624;2024-01-25T08:51:47;50.50;;;6.28;;
35150;SDS011;55720;51.972;4.624;2024-01-25T08:54:12;34.72;;;6.82;;
35150;SDS011;55720;51.972;4.624;2024-01-25T08:56:37;46.22;;;5.63;;
35150;SDS011;55720;51.972;4.624;2024-01-25T08:59:02;35.05;;;5.25;;
35150;SDS011;55720;51.972;4.624;2024-01-25T09:01:28;46.47;;;5.93;;
35150;SDS011;55720;51.972;4.624;2024-01-25T09:03:53;45.35;;;6.43;;
35150;SDS011;55720;51.972;4.624;2024-01-25T09:06:18;59.13;;;6.80;;
35150;SDS011;55720;51.972;4.624;2024-01-25T09:08:44;45.15;;;6.80;;
35150;SDS011;55720;51.972;4.624;2024-01-25T09:11:09;40.45;;;6.25;;
35150;SDS011;55720;51.972;4.624;2024-01-25T09:13:34;50.15;;;6.38;;
35150;SDS011;55720;51.972;4.624;2024-01-25T09:15:59;52.03;;;7.32;;
35150;SDS011;55720;51.972;4.624;2024-01-25T09:18:24;42.73;;;6.40;;
35150;SDS011;55720;51.972;4.624;2024-01-25T09:20:50;46.28;;;7.30;;
35150;SDS011;55720;51.972;4.624;2024-01-25T09:23:15;42.00;;;6.15;;
35150;SDS011;55720;51.972;4.624;2024-01-25T09:25:41;45.10;;;6.28;;
35150;SDS011;55720;51.972;4.624;2024-01-25T09:28:07;41.88;;;7.45;;
35150;SDS011;55720;51.972;4.624;2024-01-25T09:30:32;54.03;;;7.38;;
35150;SDS011;55720;51.972;4.624;2024-01-25T09:32:58;40.87;;;6.00;;
35150;SDS011;55720;51.972;4.624;2024-01-25T09:35:23;42.92;;;6.65;;
35150;SDS011;55720;51.972;4.624;2024-01-25T09:37:48;48.85;;;6.93;;
35150;SDS011;55720;51.972;4.624;2024-01-25T09:40:17;47.20;;;6.28;;
35150;SDS011;55720;51.972;4.624;2024-01-25T09:42:42;42.58;;;6.32;;
35150;SDS011;55720;51.972;4.624;2024-01-25T09:45:08;36.15;;;7.13;;
35150;SDS011;55720;51.972;4.624;2024-01-25T09:47:35;37.05;;;6.70;;
35150;SDS011;55720;51.972;4.624;2024-01-25T09:50:01;45.55;;;6.22;;
35150;SDS011;55720;51.972;4.624;2024-01-25T09:52:26;42.03;;;6.97;;
35150;SDS011;55720;51.972;4.624;2024-01-25T09:54:52;42.13;;;7.15;;
35150;SDS011;55720;51.972;4.624;2024-01-25T09:57:18;40.95;;;6.78;;
35150;SDS011;55720;51.972;4.624;2024-01-25T09:59:46;48.80;;;6.95;;
35150;SDS011;55720;51.972;4.624;2024-01-25T10:02:11;50.70;;;6.40;;
35150;SDS011;55720;51.972;4.624;2024-01-25T10:04:37;35.60;;;6.00;;
35150;SDS011;55720;51.972;4.624;2024-01-25T10:07:02;41.53;;;6.72;;
35150;SDS011;55720;51.972;4.624;2024-01-25T10:09:28;39.92;;;7.15;;
35150;SDS011;55720;51.972;4.624;2024-01-25T10:11:53;36.85;;;5.88;;
35150;SDS011;55720;51.972;4.624;2024-01-25T10:14:19;35.75;;;6.60;;
35150;SDS011;55720;51.972;4.624;2024-01-25T10:16:45;39.63;;;7.57;;
35150;SDS011;55720;51.972;4.624;2024-01-25T10:19:10;35.22;;;5.72;;
35150;SDS011;55720;51.972;4.624;2024-01-25T10:21:36;39.92;;;5.70;;
35150;SDS011;55720;51.972;4.624;2024-01-25T10:24:02;37.72;;;5.90;;
35150;SDS011;55720;51.972;4.624;2024-01-25T10:26:28;29.85;;;5.88;;
35150;SDS011;55720;51.972;4.624;2024-01-25T10:28:53;27.20;;;5.78;;
35150;SDS011;55720;51.972;4.624;2024-01-25T10:31:19;36.13;;;6.25;;
35150;SDS011;55720;51.972;4.624;2024-01-25T10:33:44;35.33;;;5.63;;
35150;SDS011;55720;51.972;4.624;2024-01-25T10:36:10;35.65;;;6.38;;
35150;SDS011;55720;51.972;4.624;2024-01-25T10:38:36;29.27;;;5.20;;
35150;SDS011;55720;51.972;4.624;2024-01-25T10:41:03;36.85;;;6.78;;
35150;SDS011;55720;51.972;4.624;2024-01-25T10:43:28;35.65;;;6.35;;
35150;SDS011;55720;51.972;4.624;2024-01-25T10:45:57;37.85;;;5.82;;
35150;SDS011;55720;51.972;4.624;2024-01-25T10:48:24;42.35;;;6.32;;
35150;SDS011;55720;51.972;4.624;2024-01-25T10:50:49;42.13;;;5.78;;
35150;SDS011;55720;51.972;4.624;2024-01-25T10:53:15;39.55;;;6.30;;
35150;SDS011;55720;51.972;4.624;2024-01-25T10:55:41;40.13;;;6.72;;
35150;SDS011;55720;51.972;4.624;2024-01-25T10:58:06;30.45;;;5.35;;
35150;SDS011;55720;51.972;4.624;2024-01-25T11:00:33;36.85;;;6.07;;
35150;SDS011;55720;51.972;4.624;2024-01-25T11:03:00;37.20;;;5.72;;
35150;SDS011;55720;51.972;4.624;2024-01-25T11:05:25;38.47;;;6.57;;
35150;SDS011;55720;51.972;4.624;2024-01-25T11:07:51;34.10;;;7.40;;
35150;SDS011;55720;51.972;4.624;2024-01-25T11:10:17;39.93;;;7.37;;
35150;SDS011;55720;51.972;4.624;2024-01-25T11:12:49;32.35;;;6.28;;
35150;SDS011;55720;51.972;4.624;2024-01-25T11:15:22;29.70;;;6.32;;
35150;SDS011;55720;51.972;4.624;2024-01-25T11:17:52;36.80;;;6.88;;
35150;SDS011;55720;51.972;4.624;2024-01-25T11:20:19;26.98;;;5.45;;
35150;SDS011;55720;51.972;4.624;2024-01-25T11:22:45;26.58;;;6.50;;
35150;SDS011;55720;51.972;4.624;2024-01-25T11:25:12;33.70;;;7.10;;
35150;SDS011;55720;51.972;4.624;2024-01-25T11:27:37;37.67;;;7.15;;
35150;SDS011;55720;51.972;4.624;2024-01-25T11:30:03;33.88;;;7.10;;
35150;SDS011;55720;51.972;4.624;2024-01-25T11:32:32;32.03;;;6.93;;
35150;SDS011;55720;51.972;4.624;2024-01-25T11:34:58;35.90;;;7.32;;
35150;SDS011;55720;51.972;4.624;2024-01-25T11:37:23;43.60;;;7.35;;
35150;SDS011;55720;51.972;4.624;2024-01-25T11:39:48;27.43;;;6.23;;
35150;SDS011;55720;51.972;4.624;2024-01-25T11:42:14;45.87;;;6.93;;
35150;SDS011;55720;51.972;4.624;2024-01-25T11:44:39;31.87;;;7.20;;
35150;SDS011;55720;51.972;4.624;2024-01-25T11:47:04;32.47;;;6.60;;
35150;SDS011;55720;51.972;4.624;2024-01-25T11:49:29;37.83;;;6.78;;
35150;SDS011;55720;51.972;4.624;2024-01-25T11:51:54;41.77;;;6.93;;
35150;SDS011;55720;51.972;4.624;2024-01-25T11:54:20;32.70;;;6.45;;
35150;SDS011;55720;51.972;4.624;2024-01-25T11:56:45;30.00;;;6.60;;
35150;SDS011;55720;51.972;4.624;2024-01-25T11:59:11;33.28;;;6.70;;
35150;SDS011;55720;51.972;4.624;2024-01-25T12:01:36;33.60;;;7.35;;
35150;SDS011;55720;51.972;4.624;2024-01-25T12:04:02;33.33;;;6.82;;
35150;SDS011;55720;51.972;4.624;2024-01-25T12:06:27;32.10;;;6.32;;
35150;SDS011;55720;51.972;4.624;2024-01-25T12:08:52;29.55;;;5.90;;
35150;SDS011;55720;51.972;4.624;2024-01-25T12:11:17;30.70;;;7.00;;
35150;SDS011;55720;51.972;4.624;2024-01-25T12:13:44;33.10;;;6.53;;
35150;SDS011;55720;51.972;4.624;2024-01-25T12:16:09;52.60;;;7.38;;
35150;SDS011;55720;51.972;4.624;2024-01-25T12:18:35;41.05;;;7.28;;
35150;SDS011;55720;51.972;4.624;2024-01-25T12:21:01;29.20;;;6.60;;
35150;SDS011;55720;51.972;4.624;2024-01-25T12:23:39;26.60;;;6.28;;
35150;SDS011;55720;51.972;4.624;2024-01-25T12:26:05;28.38;;;6.28;;
35150;SDS011;55720;51.972;4.624;2024-01-25T12:28:31;26.58;;;6.30;;
35150;SDS011;55720;51.972;4.624;2024-01-25T12:30:57;44.85;;;7.03;;
35150;SDS011;55720;51.972;4.624;2024-01-25T12:33:23;37.08;;;6.75;;
35150;SDS011;55720;51.972;4.624;2024-01-25T12:35:48;29.85;;;7.07;;
35150;SDS011;55720;51.972;4.624;2024-01-25T12:38:13;38.45;;;7.18;;
35150;SDS011;55720;51.972;4.624;2024-01-25T12:40:40;45.03;;;7.60;;
35150;SDS011;55720;51.972;4.624;2024-01-25T12:43:06;33.53;;;6.65;;
35150;SDS011;55720;51.972;4.624;2024-01-25T12:45:31;39.50;;;7.53;;
35150;SDS011;55720;51.972;4.624;2024-01-25T12:47:57;39.40;;;7.63;;
35150;SDS011;55720;51.972;4.624;2024-01-25T12:50:22;38.83;;;7.17;;
35150;SDS011;55720;51.972;4.624;2024-01-25T12:52:47;38.77;;;8.73;;
35150;SDS011;55720;51.972;4.624;2024-01-25T12:55:12;46.55;;;7.97;;
35150;SDS011;55720;51.972;4.624;2024-01-25T12:57:37;39.87;;;8.10;;
35150;SDS011;55720;51.972;4.624;2024-01-25T13:00:03;45.77;;;9.40;;
35150;SDS011;55720;51.972;4.624;2024-01-25T13:02:29;48.22;;;7.65;;
35150;SDS011;55720;51.972;4.624;2024-01-25T13:04:54;41.33;;;8.87;;
35150;SDS011;55720;51.972;4.624;2024-01-25T13:07:20;42.72;;;8.52;;
35150;SDS011;55720;51.972;4.624;2024-01-25T13:09:45;46.85;;;8.65;;
35150;SDS011;55720;51.972;4.624;2024-01-25T13:12:10;45.60;;;7.95;;
35150;SDS011;55720;51.972;4.624;2024-01-25T13:14:35;35.20;;;8.18;;
35150;SDS011;55720;51.972;4.624;2024-01-25T13:17:01;34.60;;;8.02;;
35150;SDS011;55720;51.972;4.624;2024-01-25T13:19:26;42.53;;;8.30;;
35150;SDS011;55720;51.972;4.624;2024-01-25T13:21:51;44.05;;;8.55;;
35150;SDS011;55720;51.972;4.624;2024-01-25T13:24:17;36.97;;;7.97;;
35150;SDS011;55720;51.972;4.624;2024-01-25T13:26:43;31.10;;;7.63;;
35150;SDS011;55720;51.972;4.624;2024-01-25T13:29:08;40.40;;;7.90;;
35150;SDS011;55720;51.972;4.624;2024-01-25T13:31:37;38.72;;;8.25;;
35150;SDS011;55720;51.972;4.624;2024-01-25T13:34:02;35.03;;;7.20;;
35150;SDS011;55720;51.972;4.624;2024-01-25T13:36:28;42.63;;;7.65;;
35150;SDS011;55720;51.972;4.624;2024-01-25T13:38:53;31.97;;;8.00;;
35150;SDS011;55720;51.972;4.624;2024-01-25T13:41:18;36.85;;;7.38;;
35150;SDS011;55720;51.972;4.624;2024-01-25T13:43:43;43.38;;;7.90;;
35150;SDS011;55720;51.972;4.624;2024-01-25T13:46:09;29.80;;;6.50;;
35150;SDS011;55720;51.972;4.624;2024-01-25T13:48:34;39.83;;;7.95;;
35150;SDS011;55720;51.972;4.624;2024-01-25T13:50:59;37.73;;;8.57;;
35150;SDS011;55720;51.972;4.624;2024-01-25T13:53:24;39.17;;;9.67;;
35150;SDS011;55720;51.972;4.624;2024-01-25T13:55:49;34.38;;;8.32;;
35150;SDS011;55720;51.972;4.624;2024-01-25T13:58:15;40.78;;;9.00;;
35150;SDS011;55720;51.972;4.624;2024-01-25T14:00:40;42.47;;;9.10;;
35150;SDS011;55720;51.972;4.624;2024-01-25T14:03:05;35.50;;;7.87;;
35150;SDS011;55720;51.972;4.624;2024-01-25T14:05:30;42.30;;;8.48;;
35150;SDS011;55720;51.972;4.624;2024-01-25T14:07:56;38.60;;;8.30;;
35150;SDS011;55720;51.972;4.624;2024-01-25T14:10:21;33.33;;;8.97;;
35150;SDS011;55720;51.972;4.624;2024-01-25T14:12:46;33.92;;;9.40;;
35150;SDS011;55720;51.972;4.624;2024-01-25T14:15:12;36.65;;;10.25;;
35150;SDS011;55720;51.972;4.624;2024-01-25T14:17:37;37.80;;;11.38;;
35150;SDS011;55720;51.972;4.624;2024-01-25T14:20:03;33.22;;;10.40;;
35150;SDS011;55720;51.972;4.624;2024-01-25T14:22:29;31.35;;;10.68;;